Home   Weather   USA   Fort Drum   Past weeks
Flag for USA

Past Weather in Fort Drum, New York, USA — Yesterday and Last 2 Weeks

Currently: 41 °F. Light rain. Fog. (Weather station: Fort Drum / Wheeler-Sack U. S. Army Airfield, USA). See more current weather

Past Weather in Fort Drum — Graph

°F

Fort Drum Temperature Yesterday

Maximum temperature yesterday: 43 °F (at 4:55 pm)
Minimum temperature yesterday: 36 °F (at 9:36 am)
Average temperature yesterday: 41 °F

High & Low Weather Summary for the Past Weeks

 TemperatureHumidityPressure
High65 °F (Feb 27, 2:55 pm)100% (Mar 2, 9:18 pm)30.45 "Hg (Mar 2, 9:18 pm)
Low6 °F (Feb 24, 6:55 am)27% (Feb 25, 2:55 pm)29.18 "Hg (Feb 28, 3:35 pm)
Average31 °F68%29.91 "Hg
* Reported Feb 17 7:17 am — Mar 3 7:35 am, Fort Drum. Weather by CustomWeather, © 2024

Note: Actual official high and low records may vary slightly from our data, if they occured in-between our weather recording intervals... More about our weather records

Fort Drum Weather History for the Previous 24 Hours

Scroll right to see more
 ConditionsComfort  
Time TempWeatherWind HumidityBarometerVisibility
7:35 am
Sun, Mar 3
41 °FFog.No wind93%30.23 "Hg0 mi
6:55 am40 °FFog.No wind96%30.22 "Hg0 mi
6:35 am41 °FFog.No wind93%30.21 "Hg1 mi
5:55 am40 °FFog.No wind96%30.21 "Hg1 mi
5:35 am39 °FFog.No wind100%30.19 "Hg1 mi
5:05 am39 °FFog.No wind100%30.19 "Hg1 mi
4:55 am40 °FFog.No wind96%30.17 "Hg1 mi
4:35 am41 °FFog.No wind93%30.17 "Hg1 mi
3:55 am41 °FFog.No wind96%30.17 "Hg1 mi
3:31 am41 °FFog.3 mph93%30.16 "Hg1 mi
3:05 am41 °FFog.No wind93%30.14 "Hg1 mi
2:35 am41 °FFog.No wind93%30.14 "Hg1 mi
2:15 am41 °FFog.No wind100%30.14 "Hg1 mi
1:55 am41 °FFog.3 mph96%30.16 "Hg1 mi
1:25 am41 °FFog.No wind100%30.14 "Hg1 mi
1:05 am41 °FFog.No wind100%30.14 "Hg1 mi
12:55 am41 °FFog.No wind96%30.14 "Hg1 mi
12:25 am41 °FFog.No wind100%30.14 "Hg1 mi
12:05 am43 °FFog.No wind93%30.14 "Hg6 mi
11:55 pm
Sat, Mar 2
42 °FOvercast.No wind96%30.14 "Hg9 mi
11:30 pm43 °FLow clouds.6 mph93%30.14 "Hg8 mi
10:55 pm43 °FOvercast.3 mph96%30.14 "Hg10 mi
10:25 pm41 °FOvercast.No wind100%30.14 "Hg8 mi
9:55 pm42 °FOvercast.No wind96%30.14 "Hg10 mi
9:18 pm41 °FFog.3 mph100%30.15 "Hg4 mi
8:55 pm42 °FFog.No wind96%30.15 "Hg5 mi
7:55 pm42 °FMostly cloudy.5 mph96%30.15 "Hg10 mi
6:55 pm42 °FLight rain. Fog.3 mph96%30.14 "Hg1 mi
5:55 pm42 °FLight rain. Fog.3 mph95%30.13 "Hg2 mi
5:41 pm43 °FLight rain. Fog.3 mph93%30.13 "Hg3 mi
5:35 pm43 °FLight rain. Fog.No wind93%30.14 "Hg4 mi
5:15 pm43 °FLight rain. Fog.3 mph93%30.13 "Hg4 mi
4:55 pm43 °FLight rain. Low clouds.No wind93%30.14 "Hg9 mi
4:05 pm43 °FDrizzle. Mostly cloudy.6 mph93%30.16 "Hg10 mi
3:27 pm43 °FLight rain. Mostly cloudy.6 mph87%30.15 "Hg10 mi
2:55 pm41 °FLight rain. Overcast.6 mph90%30.15 "Hg10 mi
2:25 pm43 °FLight rain. Mostly cloudy.7 mph87%30.16 "Hg10 mi
1:55 pm43 °FLight rain. Overcast.8 mph88%30.16 "Hg8 mi
1:25 pm43 °FLight rain. Overcast.10 mph87%30.19 "Hg10 mi
12:55 pm43 °FLight rain. Overcast.14 mph85%30.19 "Hg10 mi
12:05 pm41 °FLight rain. Mostly cloudy.6 mph93%30.22 "Hg10 mi
11:55 am42 °FLight rain. More clouds than sun.7 mph92%30.22 "Hg10 mi
11:09 am41 °FMore clouds than sun.6 mph93%30.23 "Hg10 mi
10:57 am41 °FMostly cloudy.6 mph93%30.23 "Hg10 mi
10:28 am39 °FOvercast.8 mph93%30.24 "Hg10 mi
10:18 am39 °FLight rain. Overcast.8 mph93%30.24 "Hg10 mi
9:55 am39 °FOvercast.7 mph91%30.24 "Hg10 mi
9:36 am36 °FOvercast.8 mph93%30.24 "Hg10 mi
8:55 am37 °FOvercast.9 mph90%30.25 "Hg10 mi
Weather by CustomWeather, © 2024

See weather overview